Aviation Digital Data Service (ADDS)

Output produced by METARs form (1935 UTC 23 January 2019)
found at http://www.aviationweather.gov/metar/data/
 
METAR text: VTUQ 221100Z 03005KT 340V070 9000 NSC 28/15 Q1014 NOSIG
Conditions at: VTUQ (NAKHON RATCHASIM, TH) observed 1100 UTC 22 January 2019
Temperature: 28.0°C (82°F)
Dewpoint: 15.0°C (59°F) [RH = 45%]
Pressure (altimeter): 29.94 inches Hg (1014.0 mb)
Winds: from the NNE (30 degrees) at 6 MPH (5 knots; 2.6 m/s)
Visibility: 6 miles ( 9 km)
Ceiling: at least 12,000 feet AGL
Clouds: sky clear below 12,000 feet AGL
Weather: no significant weather observed at this time

METAR text: VTUQ 221000Z 07008KT 020V120 CAVOK 30/16 Q1014 NOSIG
Conditions at: VTUQ (NAKHON RATCHASIM, TH) observed 1000 UTC 22 January 2019
Temperature: 30.0°C (86°F)
Dewpoint: 16.0°C (61°F) [RH = 43%]
Pressure (altimeter): 29.94 inches Hg (1014.0 mb)
Winds: from the ENE (70 degrees) at 9 MPH (8 knots; 4.1 m/s)
Visibility: 6 or more miles (10+ km)
Ceiling: ceiling and visibility are OK
Clouds: unknown
Weather: no significant weather observed at this time

METAR text: VTUQ 220900Z 04010KT 330V080 CAVOK 32/17 Q1014 NOSIG
Conditions at: VTUQ (NAKHON RATCHASIM, TH) observed 0900 UTC 22 January 2019
Temperature: 32.0°C (90°F)
Dewpoint: 17.0°C (63°F) [RH = 41%]
Pressure (altimeter): 29.94 inches Hg (1014.0 mb)
Winds: from the NE (40 degrees) at 12 MPH (10 knots; 5.1 m/s)
Visibility: 6 or more miles (10+ km)
Ceiling: ceiling and visibility are OK
Clouds: unknown
Weather: no significant weather observed at this time

METAR text: VTUQ 220800Z 04005KT 320V110 CAVOK 32/17 Q1014 NOSIG
Conditions at: VTUQ (NAKHON RATCHASIM, TH) observed 0800 UTC 22 January 2019
Temperature: 32.0°C (90°F)
Dewpoint: 17.0°C (63°F) [RH = 41%]
Pressure (altimeter): 29.94 inches Hg (1014.0 mb)
Winds: from the NE (40 degrees) at 6 MPH (5 knots; 2.6 m/s)
Visibility: 6 or more miles (10+ km)
Ceiling: ceiling and visibility are OK
Clouds: unknown
Weather: no significant weather observed at this time

Forecast for: VTUQ (NAKHON RATCHASIM, TH)
Text: TAF VTUQ 231700Z 2318/2418 03003KT 7000 NSC
Forecast period: 1800 UTC 23 January 2019 to 0300 UTC 24 January 2019
Forecast type: FROM: standard forecast or significant change
Winds: from the NNE (30 degrees) at 3 MPH (3 knots; 1.5 m/s)
Visibility: 4 miles (7 km)
Ceiling: unknown
Clouds: missing
Weather: no significant weather forecast for this period
Text: BECMG 2403/2405 9999 FEW035
Forecast period: 0300 to 1800 UTC 24 January 2019
Forecast type: BECOMING: Conditions expected to become as follows by 0500 UTC 24 January 2019
Winds: from the NNE (30 degrees) at 3 MPH (3 knots; 1.5 m/s)
Visibility: 6 or more miles 10+ km)
Ceiling: at least 12,000 feet AGL
Clouds: few clouds at 3500 feet AGL
Weather: no significant weather forecast for this period